createdAt,value
2023-05-10T00:02:09.703Z,99.90
2023-05-10T00:04:36.444Z,99.90
2023-05-10T00:07:03.298Z,99.90
2023-05-10T00:09:30.442Z,99.90
2023-05-10T00:11:59.399Z,99.90
2023-05-10T00:14:26.162Z,99.90
2023-05-10T00:16:53.010Z,99.90
2023-05-10T00:19:19.857Z,99.90
2023-05-10T00:21:46.676Z,99.90
2023-05-10T00:24:13.373Z,99.90
2023-05-10T00:26:40.495Z,99.90
2023-05-10T00:29:07.194Z,99.90
2023-05-10T00:31:34.120Z,99.90
2023-05-10T00:34:00.856Z,99.90
2023-05-10T00:36:28.721Z,99.90
2023-05-10T00:38:55.568Z,99.90
2023-05-10T00:41:22.945Z,99.90
2023-05-10T00:43:49.794Z,99.90
2023-05-10T00:46:16.579Z,99.90
2023-05-10T00:48:43.985Z,99.90
2023-05-10T00:51:10.658Z,99.90
2023-05-10T00:53:38.046Z,99.90
2023-05-10T00:56:04.790Z,99.90
2023-05-10T00:58:32.029Z,99.90
2023-05-10T01:00:59.135Z,99.90
2023-05-10T01:03:26.454Z,99.90
2023-05-10T01:05:53.291Z,99.90
2023-05-10T01:08:20.013Z,99.90
2023-05-10T01:10:46.774Z,99.90
2023-05-10T01:13:13.507Z,99.90
2023-05-10T01:15:41.144Z,99.90
2023-05-10T01:18:07.919Z,99.90
2023-05-10T01:20:37.669Z,99.90
2023-05-10T01:23:04.363Z,99.90
2023-05-10T01:25:49.539Z,99.90
2023-05-10T01:28:16.144Z,99.90
2023-05-10T01:31:07.342Z,99.90
2023-05-10T01:33:40.630Z,99.90
2023-05-10T01:36:14.991Z,99.90
2023-05-10T01:38:51.768Z,99.90
2023-05-10T01:41:19.647Z,99.90
2023-05-10T01:43:51.771Z,99.90
2023-05-10T01:46:19.264Z,99.90
2023-05-10T01:48:49.587Z,99.90
2023-05-10T01:51:16.987Z,99.90
2023-05-10T01:53:43.699Z,99.90
2023-05-10T01:56:10.420Z,99.90
2023-05-10T01:58:37.026Z,99.90
2023-05-10T02:01:04.340Z,99.90
2023-05-10T02:03:31.135Z,99.90
2023-05-10T02:05:57.820Z,99.90
2023-05-10T02:08:24.439Z,99.90
2023-05-10T02:10:51.853Z,99.90
2023-05-10T02:13:19.189Z,99.90
2023-05-10T02:15:48.248Z,99.90
2023-05-10T02:18:16.469Z,99.90
2023-05-10T02:20:43.346Z,99.90
2023-05-10T02:23:10.090Z,99.90
2023-05-10T02:25:36.774Z,99.90
2023-05-10T02:28:04.855Z,99.90
2023-05-10T02:30:32.660Z,99.90
2023-05-10T02:32:59.853Z,99.90
2023-05-10T02:35:26.721Z,99.90
2023-05-10T02:37:53.493Z,99.90
2023-05-10T02:40:20.232Z,99.90
2023-05-10T02:42:47.412Z,99.90
2023-05-10T02:45:15.963Z,99.90
2023-05-10T02:47:42.683Z,99.90
2023-05-10T02:50:09.663Z,99.90
2023-05-10T02:52:49.134Z,99.90
2023-05-10T02:55:16.980Z,99.90
2023-05-10T02:57:52.033Z,99.90
2023-05-10T03:00:18.982Z,99.90
2023-05-10T03:02:45.812Z,99.90
2023-05-10T03:05:12.464Z,99.90
2023-05-10T03:07:39.100Z,99.90
2023-05-10T03:10:06.317Z,99.90
2023-05-10T03:12:54.262Z,99.90
2023-05-10T03:15:33.222Z,99.90
2023-05-10T03:18:04.476Z,99.90
2023-05-10T03:20:32.876Z,99.90
2023-05-10T03:23:08.575Z,99.90
2023-05-10T03:25:35.340Z,99.90
2023-05-10T03:28:02.291Z,99.90
2023-05-10T03:30:28.985Z,99.90
2023-05-10T03:32:55.697Z,99.90
2023-05-10T03:35:22.379Z,99.90
2023-05-10T03:37:49.080Z,99.90
2023-05-10T03:40:16.608Z,99.90
2023-05-10T03:42:43.478Z,99.90
2023-05-10T03:45:10.668Z,99.90
2023-05-10T03:47:37.477Z,99.90
2023-05-10T03:50:04.315Z,99.90
2023-05-10T03:52:30.988Z,99.90
2023-05-10T03:54:57.651Z,99.90
2023-05-10T03:57:25.182Z,99.90
2023-05-10T03:59:52.193Z,99.90
2023-05-10T04:02:18.889Z,99.90
2023-05-10T04:04:45.902Z,99.90
2023-05-10T04:07:12.582Z,99.90
2023-05-10T04:09:39.220Z,99.90
2023-05-10T04:12:07.503Z,99.90
2023-05-10T04:14:35.085Z,99.90
2023-05-10T04:17:02.145Z,99.90
2023-05-10T04:19:32.306Z,99.90
2023-05-10T04:21:59.120Z,99.90
2023-05-10T04:24:25.947Z,99.90
2023-05-10T04:26:52.865Z,99.90
2023-05-10T04:29:19.635Z,99.90
2023-05-10T04:31:46.322Z,99.90
2023-05-10T04:34:13.000Z,99.90
2023-05-10T04:36:39.615Z,99.90
2023-05-10T04:39:06.348Z,99.90
2023-05-10T04:41:33.043Z,99.90
2023-05-10T04:43:59.844Z,99.90
2023-05-10T04:46:26.936Z,99.90
2023-05-10T04:48:53.750Z,99.90
2023-05-10T04:51:23.678Z,99.90
2023-05-10T04:54:01.425Z,99.90
2023-05-10T04:56:32.763Z,99.90
2023-05-10T04:58:59.536Z,99.90
2023-05-10T05:01:26.248Z,99.90
2023-05-10T05:03:54.088Z,99.90
2023-05-10T05:06:22.150Z,99.90
2023-05-10T05:08:50.739Z,99.90
2023-05-10T05:11:17.942Z,99.90
2023-05-10T05:13:44.778Z,99.90
2023-05-10T05:16:12.586Z,99.90
2023-05-10T05:18:39.588Z,99.90
2023-05-10T05:21:18.770Z,99.90
2023-05-10T05:23:45.469Z,99.90
2023-05-10T05:26:12.236Z,99.90
2023-05-10T05:28:39.283Z,99.90
2023-05-10T05:31:06.729Z,99.90
2023-05-10T05:33:34.321Z,99.90
2023-05-10T05:36:07.300Z,99.90
2023-05-10T05:38:34.362Z,99.90
2023-05-10T05:41:01.017Z,99.90
2023-05-10T05:43:27.869Z,99.90
2023-05-10T05:45:59.249Z,99.90
2023-05-10T05:48:26.007Z,99.90
2023-05-10T05:50:55.979Z,99.90
2023-05-10T05:53:22.724Z,99.90
2023-05-10T05:55:54.223Z,99.90
2023-05-10T05:58:21.611Z,99.90
2023-05-10T06:00:48.435Z,99.90
2023-05-10T06:03:15.539Z,99.90
2023-05-10T06:05:42.579Z,99.90
2023-05-10T06:08:09.477Z,99.90
2023-05-10T06:10:36.222Z,99.90
2023-05-10T06:13:03.067Z,99.90
2023-05-10T06:15:29.873Z,99.90
2023-05-10T06:17:56.630Z,99.90
2023-05-10T06:20:23.358Z,99.90
2023-05-10T06:22:50.050Z,99.90
2023-05-10T06:25:19.306Z,99.90
2023-05-10T06:27:49.800Z,99.90
2023-05-10T06:30:17.820Z,99.90
2023-05-10T06:32:46.204Z,99.90
2023-05-10T06:35:13.145Z,99.90
2023-05-10T06:37:40.225Z,99.90
2023-05-10T06:40:07.314Z,99.90
2023-05-10T06:42:34.267Z,99.90
2023-05-10T06:45:01.053Z,99.90
2023-05-10T06:47:27.736Z,99.90
2023-05-10T06:49:54.701Z,99.90
2023-05-10T06:52:21.474Z,99.90
2023-05-10T06:54:48.241Z,99.90
2023-05-10T06:57:27.546Z,99.90
2023-05-10T06:59:59.423Z,99.90
2023-05-10T07:02:26.360Z,99.90
2023-05-10T07:04:53.529Z,99.90
2023-05-10T07:07:20.409Z,99.90
2023-05-10T07:09:47.257Z,99.90
2023-05-10T07:12:15.427Z,99.90
2023-05-10T07:14:43.112Z,99.90
2023-05-10T07:17:10.218Z,99.90
2023-05-10T07:19:37.156Z,99.90
2023-05-10T07:22:04.208Z,99.90
2023-05-10T07:24:32.332Z,99.90
2023-05-10T07:26:59.335Z,99.90
2023-05-10T07:29:26.257Z,99.90
2023-05-10T07:31:53.204Z,99.90
2023-05-10T07:34:20.025Z,99.90
2023-05-10T07:36:46.924Z,99.90
2023-05-10T07:39:18.604Z,99.90
2023-05-10T07:41:53.024Z,99.90
2023-05-10T07:44:21.281Z,99.90
2023-05-10T07:46:48.701Z,99.90
2023-05-10T07:49:15.454Z,99.90
2023-05-10T07:51:43.361Z,99.90
2023-05-10T07:54:10.027Z,99.90
2023-05-10T07:56:37.223Z,99.90
2023-05-10T07:59:04.996Z,99.90
2023-05-10T08:01:32.387Z,99.90
2023-05-10T08:03:59.131Z,99.90
2023-05-10T08:06:28.204Z,99.90
2023-05-10T08:08:55.160Z,99.90
2023-05-10T08:11:22.273Z,99.90
2023-05-10T08:13:49.313Z,99.90
2023-05-10T08:16:16.859Z,99.90
2023-05-10T08:18:44.373Z,99.90
2023-05-10T08:21:12.285Z,99.90
2023-05-10T08:23:38.995Z,99.90
2023-05-10T08:26:05.712Z,99.90
2023-05-10T08:28:32.470Z,99.90
2023-05-10T08:30:59.250Z,99.90
2023-05-10T08:33:26.077Z,99.90
2023-05-10T08:35:53.200Z,99.90
2023-05-10T08:38:19.876Z,99.90
2023-05-10T08:40:46.733Z,99.90
2023-05-10T08:43:13.723Z,99.90
2023-05-10T08:45:41.182Z,99.90
2023-05-10T08:48:08.408Z,99.90
2023-05-10T08:50:38.693Z,99.90
2023-05-10T08:53:05.941Z,99.90
2023-05-10T08:55:33.876Z,99.90
2023-05-10T08:58:01.031Z,99.90
2023-05-10T09:00:28.075Z,99.90
2023-05-10T09:02:54.743Z,99.90
2023-05-10T09:05:21.510Z,99.90
2023-05-10T09:07:48.193Z,99.90
2023-05-10T09:10:14.871Z,99.90
2023-05-10T09:12:41.572Z,99.90
2023-05-10T09:15:08.339Z,99.90
2023-05-10T09:17:35.159Z,99.90
2023-05-10T09:20:02.316Z,99.90
2023-05-10T09:22:29.020Z,99.90
2023-05-10T09:25:16.666Z,99.90
2023-05-10T09:27:47.316Z,99.90
2023-05-10T09:30:16.712Z,99.90
2023-05-10T09:32:46.728Z,99.90
2023-05-10T09:35:17.473Z,99.90
2023-05-10T09:37:45.155Z,99.90
2023-05-10T09:40:16.262Z,99.90
2023-05-10T09:42:56.651Z,99.90
2023-05-10T09:45:23.950Z,99.90
2023-05-10T09:47:50.831Z,99.90
2023-05-10T09:50:17.857Z,99.90
2023-05-10T09:52:54.635Z,99.90
2023-05-10T09:55:24.965Z,99.90
2023-05-10T09:57:59.661Z,99.90
2023-05-10T10:00:27.222Z,99.90
2023-05-10T10:03:00.812Z,99.90
2023-05-10T10:05:31.169Z,99.90
2023-05-10T10:07:58.102Z,99.90
2023-05-10T10:10:28.516Z,99.90
2023-05-10T10:12:56.019Z,99.90
2023-05-10T10:15:23.524Z,99.90
2023-05-10T10:17:50.818Z,99.90
2023-05-10T10:20:18.226Z,99.90
2023-05-10T10:22:45.622Z,99.90
2023-05-10T10:25:19.361Z,99.90
2023-05-10T10:27:50.231Z,99.90
2023-05-10T10:30:23.691Z,99.90
2023-05-10T10:33:10.240Z,99.90
2023-05-10T10:35:44.316Z,99.90
2023-05-10T10:38:11.030Z,99.90
2023-05-10T10:40:37.796Z,99.90
2023-05-10T10:43:23.005Z,99.90
2023-05-10T10:46:09.621Z,99.90
2023-05-10T10:48:36.360Z,99.90
2023-05-10T10:51:03.147Z,99.90
2023-05-10T10:53:30.014Z,99.90
2023-05-10T10:56:08.187Z,99.90
2023-05-10T10:58:35.046Z,99.90
2023-05-10T11:01:17.944Z,99.90
2023-05-10T11:04:00.800Z,99.90
2023-05-10T11:06:34.601Z,99.90
2023-05-10T11:09:11.335Z,99.90
2023-05-10T11:11:49.530Z,99.90
2023-05-10T11:14:16.165Z,99.90
2023-05-10T11:16:44.119Z,99.90
2023-05-10T11:19:14.664Z,99.90
2023-05-10T11:21:51.579Z,99.90
2023-05-10T11:24:23.272Z,99.90
2023-05-10T11:26:53.241Z,99.90
2023-05-10T11:29:20.959Z,99.90
2023-05-10T11:31:48.375Z,99.90
2023-05-10T11:34:44.458Z,99.90
2023-05-10T11:37:11.490Z,99.90
2023-05-10T11:39:38.470Z,99.90
2023-05-10T11:42:05.161Z,99.90
2023-05-10T11:44:34.963Z,99.90
2023-05-10T11:47:01.844Z,99.90
2023-05-10T11:49:28.545Z,99.90
2023-05-10T11:52:04.556Z,99.90
2023-05-10T11:54:32.014Z,99.50
2023-05-10T11:56:58.745Z,98.50
2023-05-10T11:59:25.593Z,97.00
2023-05-10T12:01:52.215Z,97.30
2023-05-10T12:04:19.041Z,95.40
2023-05-10T12:06:47.537Z,95.40
2023-05-10T12:09:15.245Z,95.10
2023-05-10T12:11:44.294Z,94.10
2023-05-10T12:14:11.729Z,94.20
2023-05-10T12:16:38.623Z,94.50
2023-05-10T12:19:06.534Z,94.60
2023-05-10T12:21:33.395Z,93.70
2023-05-10T12:24:01.215Z,94.10
2023-05-10T12:26:28.881Z,94.60
2023-05-10T12:28:55.596Z,95.10
2023-05-10T12:31:22.394Z,95.10
2023-05-10T12:33:50.292Z,96.80
2023-05-10T12:36:17.499Z,97.10
2023-05-10T12:38:49.107Z,96.90
2023-05-10T12:41:16.559Z,96.00
2023-05-10T12:43:43.405Z,96.20
2023-05-10T12:46:10.524Z,95.70
2023-05-10T12:48:37.470Z,96.40
2023-05-10T12:51:04.532Z,96.10
2023-05-10T12:53:31.422Z,94.70
2023-05-10T12:55:58.343Z,95.00
2023-05-10T12:58:35.012Z,94.80
2023-05-10T13:01:03.146Z,95.70
2023-05-10T13:03:30.262Z,95.80
2023-05-10T13:05:57.042Z,96.20
2023-05-10T13:08:23.751Z,95.80
2023-05-10T13:10:51.202Z,95.90
2023-05-10T13:13:18.791Z,95.40
2023-05-10T13:15:45.502Z,95.90
2023-05-10T13:18:12.886Z,95.50
2023-05-10T13:20:39.642Z,95.50
2023-05-10T13:23:06.376Z,96.20
2023-05-10T13:25:33.216Z,95.20
2023-05-10T13:28:00.037Z,94.70
2023-05-10T13:30:26.918Z,94.70
2023-05-10T13:32:53.641Z,94.80
2023-05-10T13:35:20.414Z,95.20
2023-05-10T13:37:47.027Z,95.10
2023-05-10T13:40:14.647Z,95.00
2023-05-10T13:42:41.922Z,94.30
2023-05-10T13:45:08.637Z,94.60
2023-05-10T13:47:35.413Z,95.00
2023-05-10T13:50:02.059Z,94.90
2023-05-10T13:52:28.810Z,94.00
2023-05-10T13:54:58.569Z,94.20
2023-05-10T13:57:26.020Z,96.10
2023-05-10T13:59:53.645Z,98.90
2023-05-10T14:02:21.199Z,99.90
2023-05-10T14:04:48.327Z,99.90
2023-05-10T14:07:15.202Z,99.90
2023-05-10T14:09:41.807Z,99.90
2023-05-10T14:12:08.628Z,99.90
2023-05-10T14:14:35.664Z,99.90
2023-05-10T14:17:02.407Z,99.90
2023-05-10T14:19:32.055Z,99.90
2023-05-10T14:21:59.147Z,99.90
2023-05-10T14:24:25.968Z,99.90
2023-05-10T14:26:54.784Z,99.90
2023-05-10T14:29:21.818Z,99.90
2023-05-10T14:31:48.831Z,99.90
2023-05-10T14:34:16.056Z,99.90
2023-05-10T14:36:42.739Z,99.90
2023-05-10T14:39:11.329Z,99.90
2023-05-10T14:41:38.776Z,99.90
2023-05-10T14:44:05.935Z,99.90
2023-05-10T14:46:32.732Z,99.90
2023-05-10T14:48:59.944Z,99.90
2023-05-10T14:51:29.729Z,99.90
2023-05-10T14:53:56.567Z,99.90
2023-05-10T14:56:23.393Z,99.90
2023-05-10T14:58:50.732Z,99.90
2023-05-10T15:01:17.441Z,99.90
2023-05-10T15:03:44.579Z,99.90
2023-05-10T15:06:11.725Z,99.90
2023-05-10T15:08:38.375Z,99.90
2023-05-10T15:11:05.116Z,99.90
2023-05-10T15:13:31.708Z,99.20
2023-05-10T15:15:58.295Z,98.00
2023-05-10T15:18:25.373Z,99.70
2023-05-10T15:20:52.175Z,99.90
2023-05-10T15:23:19.011Z,99.90
2023-05-10T15:25:45.687Z,99.90
2023-05-10T15:28:12.447Z,99.90
2023-05-10T15:30:39.052Z,99.90
2023-05-10T15:33:06.097Z,99.90
2023-05-10T15:35:36.726Z,99.90
2023-05-10T15:38:03.373Z,99.90
2023-05-10T15:40:30.072Z,99.90
2023-05-10T15:42:56.795Z,99.90
2023-05-10T15:45:23.674Z,99.90
2023-05-10T15:47:50.420Z,99.40
2023-05-10T15:50:17.766Z,99.90
2023-05-10T15:52:44.559Z,97.90
2023-05-10T15:55:13.306Z,96.90
2023-05-10T15:57:41.024Z,96.90
2023-05-10T16:00:08.625Z,97.40
2023-05-10T16:02:35.650Z,97.60
2023-05-10T16:05:02.493Z,99.50
2023-05-10T16:07:29.167Z,99.60
2023-05-10T16:09:55.901Z,99.90
2023-05-10T16:12:22.554Z,99.40
2023-05-10T16:14:49.309Z,99.90
2023-05-10T16:17:16.240Z,99.90
2023-05-10T16:19:43.205Z,99.90
2023-05-10T16:22:10.000Z,99.90
2023-05-10T16:24:37.443Z,99.90
2023-05-10T16:27:04.355Z,99.90
2023-05-10T16:29:32.046Z,99.90
2023-05-10T16:31:58.719Z,99.90
2023-05-10T16:34:25.539Z,99.90
2023-05-10T16:36:52.396Z,99.90
2023-05-10T16:39:19.125Z,99.90
2023-05-10T16:41:45.974Z,99.90
2023-05-10T16:44:13.492Z,99.90
2023-05-10T16:46:40.771Z,99.90
2023-05-10T16:49:07.629Z,99.90
2023-05-10T16:51:34.277Z,99.90
2023-05-10T16:54:01.404Z,99.90
2023-05-10T16:56:28.052Z,99.90
2023-05-10T16:58:55.007Z,99.90
2023-05-10T17:01:23.264Z,99.90
2023-05-10T17:03:51.855Z,99.90
2023-05-10T17:06:18.801Z,99.90
2023-05-10T17:08:45.521Z,99.90
2023-05-10T17:11:12.217Z,99.90
2023-05-10T17:13:39.207Z,99.90
2023-05-10T17:16:06.030Z,99.90
2023-05-10T17:18:33.225Z,99.90
2023-05-10T17:20:59.868Z,99.90
2023-05-10T17:23:26.744Z,99.90
2023-05-10T17:25:54.147Z,99.90
2023-05-10T17:28:20.899Z,99.90
2023-05-10T17:30:48.357Z,99.90
2023-05-10T17:33:15.083Z,99.90
2023-05-10T17:35:44.740Z,99.90
2023-05-10T17:38:12.255Z,99.90
2023-05-10T17:40:42.050Z,99.90
2023-05-10T17:43:08.701Z,99.90
2023-05-10T17:45:35.399Z,99.90
2023-05-10T17:48:02.260Z,99.90
2023-05-10T17:50:28.928Z,99.90
2023-05-10T17:52:55.650Z,99.90
2023-05-10T17:55:22.401Z,99.90
2023-05-10T17:57:50.574Z,99.90
2023-05-10T18:00:18.810Z,99.90
2023-05-10T18:02:45.540Z,99.90
2023-05-10T18:05:12.290Z,99.90
2023-05-10T18:07:39.981Z,99.90
2023-05-10T18:10:07.112Z,99.90
2023-05-10T18:12:34.140Z,99.90
2023-05-10T18:15:00.885Z,99.90
2023-05-10T18:17:27.857Z,99.90
2023-05-10T18:19:54.610Z,99.90
2023-05-10T18:22:21.654Z,99.90
2023-05-10T18:24:48.567Z,99.90
2023-05-10T18:27:15.426Z,99.90
2023-05-10T18:29:42.349Z,99.90
2023-05-10T18:32:09.498Z,99.90
2023-05-10T18:34:36.257Z,99.90
2023-05-10T18:37:07.601Z,99.90
2023-05-10T18:39:34.938Z,99.90
2023-05-10T18:42:01.975Z,99.90
2023-05-10T18:44:29.072Z,99.90
2023-05-10T18:46:56.195Z,99.90
2023-05-10T18:49:23.258Z,99.90
2023-05-10T18:51:50.150Z,99.90
2023-05-10T18:54:17.235Z,99.90
2023-05-10T18:56:45.382Z,99.90
2023-05-10T18:59:13.029Z,99.90
2023-05-10T19:01:42.689Z,99.90
2023-05-10T19:04:09.534Z,99.90
2023-05-10T19:06:41.521Z,99.90
2023-05-10T19:09:08.957Z,99.90
2023-05-10T19:11:35.912Z,99.90
2023-05-10T19:14:02.669Z,99.90
2023-05-10T19:16:30.789Z,99.90
2023-05-10T19:18:58.251Z,99.90
2023-05-10T19:21:25.823Z,99.90
2023-05-10T19:23:53.783Z,99.90
2023-05-10T19:26:21.737Z,99.90
2023-05-10T19:28:50.491Z,99.90
2023-05-10T19:31:17.384Z,99.90
2023-05-10T19:33:44.093Z,99.90
2023-05-10T19:36:11.294Z,99.90
2023-05-10T19:38:38.188Z,99.90
2023-05-10T19:41:05.014Z,99.90
2023-05-10T19:43:34.247Z,99.90
2023-05-10T19:46:01.902Z,99.90
2023-05-10T19:48:28.868Z,99.90
2023-05-10T19:51:06.978Z,99.90
2023-05-10T19:53:35.425Z,99.90
2023-05-10T19:56:02.933Z,99.90
2023-05-10T19:58:29.843Z,99.90
2023-05-10T20:00:56.584Z,99.90
2023-05-10T20:03:23.448Z,99.90
2023-05-10T20:05:50.316Z,99.90
2023-05-10T20:08:17.141Z,99.90
2023-05-10T20:10:44.052Z,99.90
2023-05-10T20:13:10.843Z,99.90
2023-05-10T20:15:37.518Z,99.90
2023-05-10T20:18:04.420Z,99.90
2023-05-10T20:20:31.791Z,99.90
2023-05-10T20:22:59.043Z,99.90
2023-05-10T20:25:26.682Z,99.90
2023-05-10T20:27:53.431Z,99.90
2023-05-10T20:30:20.680Z,99.90
2023-05-10T20:32:48.091Z,99.90
2023-05-10T20:35:15.334Z,99.90
2023-05-10T20:37:42.046Z,99.90
2023-05-10T20:40:09.096Z,99.90
2023-05-10T20:42:35.967Z,99.90
2023-05-10T20:45:03.384Z,99.90
2023-05-10T20:47:30.677Z,99.90
2023-05-10T20:49:58.168Z,99.90
2023-05-10T20:52:24.962Z,99.90
2023-05-10T20:54:51.653Z,99.90
2023-05-10T20:57:18.355Z,99.90
2023-05-10T20:59:45.225Z,99.90
2023-05-10T21:02:12.581Z,99.90
2023-05-10T21:04:39.449Z,99.90
2023-05-10T21:07:06.124Z,99.90
2023-05-10T21:09:34.960Z,99.90
2023-05-10T21:12:03.284Z,99.90
2023-05-10T21:14:30.845Z,99.90
2023-05-10T21:16:57.870Z,99.90
2023-05-10T21:19:24.540Z,99.90
2023-05-10T21:21:51.244Z,99.90
2023-05-10T21:24:18.168Z,99.90
2023-05-10T21:26:45.295Z,99.90
2023-05-10T21:29:12.411Z,99.90
2023-05-10T21:31:39.292Z,99.90
2023-05-10T21:34:06.651Z,99.90
2023-05-10T21:36:33.575Z,99.90
2023-05-10T21:39:00.828Z,99.90
2023-05-10T21:41:28.319Z,99.90
2023-05-10T21:43:56.297Z,99.90
2023-05-10T21:46:23.480Z,99.90
2023-05-10T21:48:50.974Z,99.90
2023-05-10T21:51:17.824Z,99.90
2023-05-10T21:53:44.694Z,99.90
2023-05-10T21:56:11.661Z,99.90
2023-05-10T21:58:38.686Z,99.90
2023-05-10T22:01:05.456Z,99.90
2023-05-10T22:03:32.786Z,99.90
2023-05-10T22:05:59.582Z,99.90
2023-05-10T22:08:27.040Z,99.90
2023-05-10T22:10:53.953Z,99.90
2023-05-10T22:13:20.798Z,99.90
2023-05-10T22:15:47.622Z,99.90
2023-05-10T22:18:14.939Z,99.90
2023-05-10T22:20:44.152Z,99.90
2023-05-10T22:23:11.002Z,99.90
2023-05-10T22:25:37.757Z,99.90
2023-05-10T22:28:04.604Z,99.90
2023-05-10T22:30:33.075Z,99.90
2023-05-10T22:33:00.235Z,99.90
2023-05-10T22:35:26.966Z,99.90
2023-05-10T22:37:53.946Z,99.90
2023-05-10T22:40:20.735Z,99.90
2023-05-10T22:42:47.476Z,99.90
2023-05-10T22:45:14.474Z,99.90
2023-05-10T22:47:41.263Z,99.90
2023-05-10T22:50:08.510Z,99.90
2023-05-10T22:52:35.214Z,99.90
2023-05-10T22:55:02.149Z,99.90
2023-05-10T22:57:28.930Z,99.90
2023-05-10T22:59:55.693Z,99.90
2023-05-10T23:02:22.638Z,99.90
2023-05-10T23:04:49.466Z,99.90
2023-05-10T23:07:16.314Z,99.90
2023-05-10T23:09:43.071Z,99.90
2023-05-10T23:12:09.880Z,99.90
2023-05-10T23:14:37.250Z,99.90
2023-05-10T23:17:03.900Z,99.90
2023-05-10T23:19:30.991Z,99.90
2023-05-10T23:21:57.721Z,99.90
2023-05-10T23:24:24.570Z,99.90
2023-05-10T23:26:51.403Z,99.90
2023-05-10T23:29:18.194Z,99.90
2023-05-10T23:31:46.284Z,99.90
2023-05-10T23:34:14.293Z,99.90
2023-05-10T23:36:41.136Z,99.90
2023-05-10T23:39:08.636Z,99.90
2023-05-10T23:41:35.420Z,99.90
2023-05-10T23:44:05.050Z,99.90
2023-05-10T23:46:31.826Z,99.90
2023-05-10T23:48:59.211Z,99.90
2023-05-10T23:51:26.309Z,99.90
2023-05-10T23:53:53.237Z,99.90
2023-05-10T23:56:20.044Z,99.90
2023-05-10T23:58:46.810Z,99.90
